KEYWMUCL

Guest
Details From KEYW - Key West Intl
To MUCL - VILO ACUNA INTL
Flight Number -
Tags generated
Created
Modified
Stats Distance 178 nm / 330 km
Max Altitude 17,100 ft / 5,212 m
Waypoints 3
Social Downloads 0
Likes 0
Share VATSIM

Download

Looking for another format? Having issues loading an existing format? Contact us
Advertisement - Login to hide

Notes

Basic altitude profile: - Ascent Rate: 2500ft/min - Ascent Speed: 250kts - Cruise Altitude: 35000ft - Cruise Speed: 420kts - Descent Rate: 1500ft/min - Descent Speed: 250kts Options: - Use NATs: yes - Use PACOTS: yes - Use low airways: yes - Use high airways: yes

Route

KEYW UVA MUCL

ID Type Via Altitude Latitude Longitude Leg Dist Tot Dist Heading (true) Name
O KEYW APT - 0 ft / 0 m 24.55612˚ -81.75955˚ - 0 nm - Key West Intl
UVA VOR - 17,100 ft / 5,212 m 23.02469˚ -81.45358˚ 93 nm 93 nm 170° / 170° VARDER VOR-DME
O MUCL APT - 0 ft / 0 m 21.61645˚ -81.54600˚ 84 nm 178 nm 183° / 183° VILO ACUNA INTL

Altitude Profile

Advertisement - Login to hide

Weather


0- 5 10 15 20 25 30 35+ Temperature / ° C

Clouds and Precipitation
Forecast for 2018-05-27 06:00 UTC. Updated 8 minutes ago

Ground ~20,000 ft ~40,000 ft Winds

KEYW

Details ICAO KEYW (EYW)
Name Key West Intl
Region United States
Timezone America/New_York (UTC-4.0)
Stats Elevation 2 ft / 1 m (AMSL)
Location 24.556124° -81.759546°
Runways 1
Magnetic Variation 5.594° W

METAR

KEYW 270508Z AUTO 13022G36KT 10SM -RA FEW015 BKN030 BKN047 26/25 A2972 RMK AO2 PK WND 13036/0500 P0000 T02560250

Decode

TAF

KEYW 262337Z 2700/2724 13023G36KT P6SM -RA VCSH SCT020 BKN030 OVC060 TEMPO 2700/2703 2SM +SHRA BKN015 OVC030 FM270300 15025G34KT 3SM RA VCTS SCT010CB BKN030 OVC060 TEMPO 2703/2706 1SM +TSRA BKN010CB OVC025 FM270900 18030G39KT 5SM -RA SCT012 OVC025 FM271500 17020G27KT P6SM VCSH SCT015 BKN050

Decode

Departure Runways

ID Width Length Bearing (true) Bearing (mag) Surface Threshold Offset Overrun Length
09 100 ft / 30 m 4,794 ft / 1,461 m 89.38° 94.97° Asphalt 151 ft / 46 m 0 ft / 0 m
27 100 ft / 30 m 4,794 ft / 1,461 m 269.39° 274.98° Asphalt 151 ft / 46 m 0 ft / 0 m

MUCL

Details ICAO MUCL (CYO)
Name VILO ACUNA INTL
Region Cuba
Timezone America/Havana (UTC-4.0)
Stats Elevation 10 ft / 3 m (AMSL)
Location 21.616452° -81.546000°
Runways 1
Magnetic Variation 5.287° W

METAR

MUCL 270505Z AUTO 19020KT 27/26 Q1008

Decode

TAF

Not found

Destination Runways

ID Width Length Bearing (true) Bearing (mag) Surface Threshold Offset Overrun Length
12 148 ft / 45 m 9,868 ft / 3,008 m 116.16° 121.45° Asphalt 0 ft / 0 m 197 ft / 60 m
30 148 ft / 45 m 9,868 ft / 3,008 m 296.17° 301.46° Asphalt 0 ft / 0 m 197 ft / 60 m